sensor_id;sensor_type;location;lat;lon;timestamp;P1;durP1;ratioP1;P2;durP2;ratioP2
31114;SDS011;17764;47.152;9.828;2023-02-15T00:01:49;13.47;;;6.97;;
31114;SDS011;17764;47.152;9.828;2023-02-15T00:04:18;10.97;;;6.73;;
31114;SDS011;17764;47.152;9.828;2023-02-15T00:06:44;10.80;;;6.97;;
31114;SDS011;17764;47.152;9.828;2023-02-15T00:09:11;13.23;;;7.67;;
31114;SDS011;17764;47.152;9.828;2023-02-15T00:11:37;10.47;;;6.43;;
31114;SDS011;17764;47.152;9.828;2023-02-15T00:14:25;11.43;;;6.67;;
31114;SDS011;17764;47.152;9.828;2023-02-15T00:16:51;11.60;;;7.30;;
31114;SDS011;17764;47.152;9.828;2023-02-15T00:19:20;12.83;;;6.70;;
31114;SDS011;17764;47.152;9.828;2023-02-15T00:21:48;8.90;;;5.83;;
31114;SDS011;17764;47.152;9.828;2023-02-15T00:24:15;8.60;;;5.80;;
31114;SDS011;17764;47.152;9.828;2023-02-15T00:26:41;9.97;;;6.30;;
31114;SDS011;17764;47.152;9.828;2023-02-15T00:29:10;10.37;;;6.00;;
31114;SDS011;17764;47.152;9.828;2023-02-15T00:31:37;11.93;;;5.80;;
31114;SDS011;17764;47.152;9.828;2023-02-15T00:36:29;12.03;;;6.53;;
31114;SDS011;17764;47.152;9.828;2023-02-15T00:38:55;11.73;;;6.13;;
31114;SDS011;17764;47.152;9.828;2023-02-15T00:41:21;10.37;;;6.33;;
31114;SDS011;17764;47.152;9.828;2023-02-15T00:43:46;8.37;;;5.37;;
31114;SDS011;17764;47.152;9.828;2023-02-15T00:46:12;9.40;;;5.73;;
31114;SDS011;17764;47.152;9.828;2023-02-15T00:48:38;11.07;;;5.80;;
31114;SDS011;17764;47.152;9.828;2023-02-15T00:51:04;8.87;;;5.47;;
31114;SDS011;17764;47.152;9.828;2023-02-15T00:53:30;9.70;;;5.67;;
31114;SDS011;17764;47.152;9.828;2023-02-15T00:55:57;8.07;;;5.50;;
31114;SDS011;17764;47.152;9.828;2023-02-15T00:58:23;9.23;;;5.53;;
31114;SDS011;17764;47.152;9.828;2023-02-15T01:00:49;7.90;;;5.00;;
31114;SDS011;17764;47.152;9.828;2023-02-15T01:03:15;7.97;;;5.27;;
31114;SDS011;17764;47.152;9.828;2023-02-15T01:05:42;9.50;;;5.77;;
31114;SDS011;17764;47.152;9.828;2023-02-15T01:08:08;8.83;;;5.57;;
31114;SDS011;17764;47.152;9.828;2023-02-15T01:10:34;8.80;;;5.33;;
31114;SDS011;17764;47.152;9.828;2023-02-15T01:13:01;7.87;;;4.90;;
31114;SDS011;17764;47.152;9.828;2023-02-15T01:15:27;8.20;;;5.37;;
31114;SDS011;17764;47.152;9.828;2023-02-15T01:17:54;6.57;;;4.47;;
31114;SDS011;17764;47.152;9.828;2023-02-15T01:20:20;7.77;;;4.73;;
31114;SDS011;17764;47.152;9.828;2023-02-15T01:22:46;7.27;;;4.63;;
31114;SDS011;17764;47.152;9.828;2023-02-15T01:25:14;6.63;;;4.47;;
31114;SDS011;17764;47.152;9.828;2023-02-15T01:27:41;5.47;;;3.97;;
31114;SDS011;17764;47.152;9.828;2023-02-15T01:30:07;5.20;;;3.80;;
31114;SDS011;17764;47.152;9.828;2023-02-15T01:32:33;6.33;;;3.70;;
31114;SDS011;17764;47.152;9.828;2023-02-15T01:35:00;5.87;;;3.73;;
31114;SDS011;17764;47.152;9.828;2023-02-15T01:37:26;6.60;;;4.27;;
31114;SDS011;17764;47.152;9.828;2023-02-15T01:39:51;7.27;;;4.33;;
31114;SDS011;17764;47.152;9.828;2023-02-15T01:42:22;7.33;;;4.40;;
31114;SDS011;17764;47.152;9.828;2023-02-15T01:44:53;6.43;;;3.97;;
31114;SDS011;17764;47.152;9.828;2023-02-15T01:52:54;8.60;;;3.87;;
31114;SDS011;17764;47.152;9.828;2023-02-15T01:55:21;7.37;;;4.33;;
31114;SDS011;17764;47.152;9.828;2023-02-15T01:57:48;5.30;;;4.13;;
31114;SDS011;17764;47.152;9.828;2023-02-15T02:00:15;5.73;;;3.80;;
31114;SDS011;17764;47.152;9.828;2023-02-15T02:02:42;6.87;;;3.33;;
31114;SDS011;17764;47.152;9.828;2023-02-15T02:05:09;6.27;;;3.53;;
31114;SDS011;17764;47.152;9.828;2023-02-15T02:07:36;6.13;;;3.67;;
31114;SDS011;17764;47.152;9.828;2023-02-15T02:10:04;6.50;;;3.93;;
31114;SDS011;17764;47.152;9.828;2023-02-15T02:12:30;6.83;;;4.70;;
31114;SDS011;17764;47.152;9.828;2023-02-15T02:14:57;6.03;;;4.37;;
31114;SDS011;17764;47.152;9.828;2023-02-15T02:36:15;4.90;;;3.53;;
31114;SDS011;17764;47.152;9.828;2023-02-15T02:49:08;4.63;;;3.00;;
31114;SDS011;17764;47.152;9.828;2023-02-15T02:51:34;4.37;;;3.13;;
31114;SDS011;17764;47.152;9.828;2023-02-15T02:54:00;4.43;;;3.00;;
31114;SDS011;17764;47.152;9.828;2023-02-15T02:56:33;4.67;;;2.43;;
31114;SDS011;17764;47.152;9.828;2023-02-15T02:59:15;2.67;;;2.00;;
31114;SDS011;17764;47.152;9.828;2023-02-15T03:01:48;3.80;;;2.17;;
31114;SDS011;17764;47.152;9.828;2023-02-15T03:04:27;6.07;;;2.63;;
31114;SDS011;17764;47.152;9.828;2023-02-15T03:06:56;3.27;;;2.50;;
31114;SDS011;17764;47.152;9.828;2023-02-15T03:09:27;4.43;;;2.67;;
31114;SDS011;17764;47.152;9.828;2023-02-15T03:12:06;4.73;;;2.37;;
31114;SDS011;17764;47.152;9.828;2023-02-15T03:14:35;3.63;;;2.43;;
31114;SDS011;17764;47.152;9.828;2023-02-15T03:17:02;4.70;;;2.83;;
31114;SDS011;17764;47.152;9.828;2023-02-15T03:19:31;3.20;;;2.30;;
31114;SDS011;17764;47.152;9.828;2023-02-15T03:22:11;7.00;;;2.30;;
31114;SDS011;17764;47.152;9.828;2023-02-15T03:24:49;3.37;;;2.20;;
31114;SDS011;17764;47.152;9.828;2023-02-15T03:27:19;5.17;;;2.63;;
31114;SDS011;17764;47.152;9.828;2023-02-15T03:29:46;4.47;;;2.40;;
31114;SDS011;17764;47.152;9.828;2023-02-15T03:32:14;5.37;;;2.47;;
31114;SDS011;17764;47.152;9.828;2023-02-15T03:34:41;4.00;;;2.53;;
31114;SDS011;17764;47.152;9.828;2023-02-15T03:37:11;3.63;;;2.63;;
31114;SDS011;17764;47.152;9.828;2023-02-15T03:39:45;2.97;;;2.10;;
31114;SDS011;17764;47.152;9.828;2023-02-15T03:42:22;4.83;;;2.20;;
31114;SDS011;17764;47.152;9.828;2023-02-15T03:44:54;4.57;;;2.20;;
31114;SDS011;17764;47.152;9.828;2023-02-15T03:47:23;3.93;;;2.50;;
31114;SDS011;17764;47.152;9.828;2023-02-15T03:50:03;5.13;;;2.30;;
31114;SDS011;17764;47.152;9.828;2023-02-15T03:52:55;2.93;;;2.47;;
31114;SDS011;17764;47.152;9.828;2023-02-15T03:55:25;3.40;;;2.30;;
31114;SDS011;17764;47.152;9.828;2023-02-15T03:57:51;2.93;;;2.30;;
31114;SDS011;17764;47.152;9.828;2023-02-15T04:00:36;3.47;;;2.70;;
31114;SDS011;17764;47.152;9.828;2023-02-15T04:03:26;5.10;;;2.33;;
31114;SDS011;17764;47.152;9.828;2023-02-15T04:05:56;4.33;;;2.40;;
31114;SDS011;17764;47.152;9.828;2023-02-15T04:08:21;4.43;;;2.47;;
31114;SDS011;17764;47.152;9.828;2023-02-15T04:11:07;3.63;;;2.30;;
31114;SDS011;17764;47.152;9.828;2023-02-15T04:13:33;5.80;;;2.60;;
31114;SDS011;17764;47.152;9.828;2023-02-15T04:16:00;5.27;;;2.50;;
31114;SDS011;17764;47.152;9.828;2023-02-15T04:18:41;4.07;;;2.47;;
31114;SDS011;17764;47.152;9.828;2023-02-15T04:21:27;3.10;;;2.13;;
31114;SDS011;17764;47.152;9.828;2023-02-15T04:24:12;3.53;;;2.00;;
31114;SDS011;17764;47.152;9.828;2023-02-15T04:26:57;3.40;;;2.40;;
31114;SDS011;17764;47.152;9.828;2023-02-15T04:29:24;4.90;;;2.90;;
31114;SDS011;17764;47.152;9.828;2023-02-15T04:31:51;3.23;;;2.40;;
31114;SDS011;17764;47.152;9.828;2023-02-15T04:34:18;4.00;;;2.50;;
31114;SDS011;17764;47.152;9.828;2023-02-15T04:36:43;3.00;;;2.17;;
31114;SDS011;17764;47.152;9.828;2023-02-15T04:39:11;3.40;;;1.97;;
31114;SDS011;17764;47.152;9.828;2023-02-15T04:41:37;4.37;;;2.67;;
31114;SDS011;17764;47.152;9.828;2023-02-15T04:44:04;4.07;;;2.20;;
31114;SDS011;17764;47.152;9.828;2023-02-15T04:46:30;4.60;;;2.40;;
31114;SDS011;17764;47.152;9.828;2023-02-15T04:48:56;3.53;;;2.10;;
31114;SDS011;17764;47.152;9.828;2023-02-15T04:51:22;4.07;;;2.80;;
31114;SDS011;17764;47.152;9.828;2023-02-15T04:53:48;4.17;;;2.57;;
31114;SDS011;17764;47.152;9.828;2023-02-15T04:56:14;4.70;;;2.73;;
31114;SDS011;17764;47.152;9.828;2023-02-15T04:58:40;4.40;;;2.40;;
31114;SDS011;17764;47.152;9.828;2023-02-15T05:01:07;4.73;;;2.70;;
31114;SDS011;17764;47.152;9.828;2023-02-15T05:03:33;4.30;;;2.77;;
31114;SDS011;17764;47.152;9.828;2023-02-15T05:05:59;4.07;;;3.03;;
31114;SDS011;17764;47.152;9.828;2023-02-15T05:08:25;5.67;;;2.80;;
31114;SDS011;17764;47.152;9.828;2023-02-15T05:10:51;4.97;;;2.77;;
31114;SDS011;17764;47.152;9.828;2023-02-15T05:13:16;6.27;;;3.07;;
31114;SDS011;17764;47.152;9.828;2023-02-15T05:15:46;5.43;;;2.97;;
31114;SDS011;17764;47.152;9.828;2023-02-15T05:18:12;5.50;;;3.10;;
31114;SDS011;17764;47.152;9.828;2023-02-15T05:20:38;5.10;;;3.00;;
31114;SDS011;17764;47.152;9.828;2023-02-15T05:23:04;3.60;;;2.37;;
31114;SDS011;17764;47.152;9.828;2023-02-15T05:25:32;3.17;;;2.33;;
31114;SDS011;17764;47.152;9.828;2023-02-15T05:28:17;3.13;;;2.03;;
31114;SDS011;17764;47.152;9.828;2023-02-15T05:33:29;2.27;;;1.70;;
31114;SDS011;17764;47.152;9.828;2023-02-15T05:35:55;2.27;;;1.57;;
31114;SDS011;17764;47.152;9.828;2023-02-15T05:38:21;4.00;;;2.00;;
31114;SDS011;17764;47.152;9.828;2023-02-15T05:40:47;3.50;;;2.13;;
31114;SDS011;17764;47.152;9.828;2023-02-15T05:43:12;2.80;;;1.77;;
31114;SDS011;17764;47.152;9.828;2023-02-15T05:45:38;2.43;;;1.77;;
31114;SDS011;17764;47.152;9.828;2023-02-15T05:48:04;3.20;;;1.90;;
31114;SDS011;17764;47.152;9.828;2023-02-15T05:50:30;4.33;;;2.17;;
31114;SDS011;17764;47.152;9.828;2023-02-15T05:52:56;2.70;;;2.13;;
31114;SDS011;17764;47.152;9.828;2023-02-15T05:55:21;3.00;;;1.80;;
31114;SDS011;17764;47.152;9.828;2023-02-15T05:57:48;2.13;;;1.83;;
31114;SDS011;17764;47.152;9.828;2023-02-15T06:00:14;4.50;;;2.47;;
31114;SDS011;17764;47.152;9.828;2023-02-15T06:02:40;3.73;;;2.20;;
31114;SDS011;17764;47.152;9.828;2023-02-15T06:05:06;4.23;;;2.20;;
31114;SDS011;17764;47.152;9.828;2023-02-15T06:07:32;4.03;;;2.57;;
31114;SDS011;17764;47.152;9.828;2023-02-15T06:10:00;4.70;;;2.70;;
31114;SDS011;17764;47.152;9.828;2023-02-15T06:12:26;4.17;;;2.70;;
31114;SDS011;17764;47.152;9.828;2023-02-15T06:14:52;3.50;;;2.70;;
31114;SDS011;17764;47.152;9.828;2023-02-15T06:17:17;4.97;;;2.87;;
31114;SDS011;17764;47.152;9.828;2023-02-15T06:19:43;3.67;;;2.60;;
31114;SDS011;17764;47.152;9.828;2023-02-15T06:22:09;5.17;;;3.30;;
31114;SDS011;17764;47.152;9.828;2023-02-15T06:24:35;5.73;;;3.03;;
31114;SDS011;17764;47.152;9.828;2023-02-15T06:27:01;4.03;;;2.93;;
31114;SDS011;17764;47.152;9.828;2023-02-15T06:29:27;3.87;;;3.20;;
31114;SDS011;17764;47.152;9.828;2023-02-15T06:31:52;4.73;;;3.50;;
31114;SDS011;17764;47.152;9.828;2023-02-15T06:34:18;6.27;;;4.07;;
31114;SDS011;17764;47.152;9.828;2023-02-15T06:36:44;5.87;;;3.70;;
31114;SDS011;17764;47.152;9.828;2023-02-15T06:39:10;4.90;;;4.00;;
31114;SDS011;17764;47.152;9.828;2023-02-15T06:41:37;6.87;;;4.60;;
31114;SDS011;17764;47.152;9.828;2023-02-15T06:44:04;6.10;;;4.47;;
31114;SDS011;17764;47.152;9.828;2023-02-15T06:46:30;6.90;;;4.20;;
31114;SDS011;17764;47.152;9.828;2023-02-15T06:48:55;5.97;;;4.10;;
31114;SDS011;17764;47.152;9.828;2023-02-15T06:51:21;6.00;;;4.17;;
31114;SDS011;17764;47.152;9.828;2023-02-15T06:53:47;5.80;;;4.23;;
31114;SDS011;17764;47.152;9.828;2023-02-15T06:56:12;5.80;;;4.00;;
31114;SDS011;17764;47.152;9.828;2023-02-15T06:58:39;6.23;;;3.93;;
31114;SDS011;17764;47.152;9.828;2023-02-15T07:01:05;5.07;;;3.70;;
31114;SDS011;17764;47.152;9.828;2023-02-15T07:03:32;3.43;;;2.70;;
31114;SDS011;17764;47.152;9.828;2023-02-15T07:05:58;4.13;;;3.10;;
31114;SDS011;17764;47.152;9.828;2023-02-15T07:08:25;5.03;;;3.50;;
31114;SDS011;17764;47.152;9.828;2023-02-15T07:10:52;5.13;;;3.37;;
31114;SDS011;17764;47.152;9.828;2023-02-15T07:13:19;4.77;;;2.90;;
31114;SDS011;17764;47.152;9.828;2023-02-15T07:15:47;5.43;;;3.27;;
31114;SDS011;17764;47.152;9.828;2023-02-15T07:18:14;5.60;;;3.70;;
31114;SDS011;17764;47.152;9.828;2023-02-15T07:20:40;4.80;;;3.53;;
31114;SDS011;17764;47.152;9.828;2023-02-15T07:23:06;7.50;;;3.67;;
31114;SDS011;17764;47.152;9.828;2023-02-15T07:25:34;6.20;;;3.97;;
31114;SDS011;17764;47.152;9.828;2023-02-15T07:28:01;5.90;;;3.57;;
31114;SDS011;17764;47.152;9.828;2023-02-15T07:30:28;7.00;;;4.30;;
31114;SDS011;17764;47.152;9.828;2023-02-15T07:32:55;6.33;;;4.40;;
31114;SDS011;17764;47.152;9.828;2023-02-15T07:35:45;6.33;;;4.10;;
31114;SDS011;17764;47.152;9.828;2023-02-15T07:38:12;5.50;;;3.90;;
31114;SDS011;17764;47.152;9.828;2023-02-15T07:40:38;5.00;;;3.77;;
31114;SDS011;17764;47.152;9.828;2023-02-15T07:43:04;7.13;;;4.60;;
31114;SDS011;17764;47.152;9.828;2023-02-15T07:45:30;6.63;;;4.83;;
31114;SDS011;17764;47.152;9.828;2023-02-15T07:47:56;6.07;;;4.50;;
31114;SDS011;17764;47.152;9.828;2023-02-15T07:50:22;7.93;;;4.73;;
31114;SDS011;17764;47.152;9.828;2023-02-15T07:52:48;6.13;;;4.23;;
31114;SDS011;17764;47.152;9.828;2023-02-15T07:55:14;6.53;;;4.47;;
31114;SDS011;17764;47.152;9.828;2023-02-15T07:57:47;6.33;;;5.13;;
31114;SDS011;17764;47.152;9.828;2023-02-15T08:00:14;5.93;;;4.40;;
31114;SDS011;17764;47.152;9.828;2023-02-15T08:02:42;7.37;;;5.30;;
31114;SDS011;17764;47.152;9.828;2023-02-15T08:05:08;5.77;;;4.67;;
31114;SDS011;17764;47.152;9.828;2023-02-15T08:07:36;8.47;;;5.03;;
31114;SDS011;17764;47.152;9.828;2023-02-15T08:10:02;7.33;;;5.17;;
31114;SDS011;17764;47.152;9.828;2023-02-15T08:12:28;7.27;;;5.33;;
31114;SDS011;17764;47.152;9.828;2023-02-15T08:14:54;6.07;;;4.43;;
31114;SDS011;17764;47.152;9.828;2023-02-15T08:17:20;6.47;;;4.47;;
31114;SDS011;17764;47.152;9.828;2023-02-15T08:19:46;5.63;;;4.07;;
31114;SDS011;17764;47.152;9.828;2023-02-15T08:22:13;6.83;;;4.97;;
31114;SDS011;17764;47.152;9.828;2023-02-15T08:24:39;5.70;;;4.30;;
31114;SDS011;17764;47.152;9.828;2023-02-15T08:27:07;6.40;;;4.60;;
31114;SDS011;17764;47.152;9.828;2023-02-15T08:29:33;6.87;;;4.50;;
31114;SDS011;17764;47.152;9.828;2023-02-15T08:32:04;8.13;;;5.23;;
31114;SDS011;17764;47.152;9.828;2023-02-15T08:34:36;6.43;;;4.73;;
31114;SDS011;17764;47.152;9.828;2023-02-15T08:37:03;7.37;;;4.23;;
31114;SDS011;17764;47.152;9.828;2023-02-15T08:39:30;6.00;;;4.63;;
31114;SDS011;17764;47.152;9.828;2023-02-15T08:41:57;7.50;;;5.03;;
31114;SDS011;17764;47.152;9.828;2023-02-15T08:44:22;8.03;;;5.30;;
31114;SDS011;17764;47.152;9.828;2023-02-15T08:46:49;7.80;;;5.30;;
31114;SDS011;17764;47.152;9.828;2023-02-15T08:49:16;8.93;;;5.47;;
31114;SDS011;17764;47.152;9.828;2023-02-15T08:51:42;7.80;;;5.00;;
31114;SDS011;17764;47.152;9.828;2023-02-15T08:54:10;8.67;;;4.83;;
31114;SDS011;17764;47.152;9.828;2023-02-15T08:56:37;8.10;;;5.50;;
31114;SDS011;17764;47.152;9.828;2023-02-15T08:59:04;7.73;;;4.67;;
31114;SDS011;17764;47.152;9.828;2023-02-15T09:01:32;6.13;;;4.03;;
31114;SDS011;17764;47.152;9.828;2023-02-15T09:04:04;7.03;;;3.43;;
31114;SDS011;17764;47.152;9.828;2023-02-15T09:06:33;7.70;;;4.10;;
31114;SDS011;17764;47.152;9.828;2023-02-15T09:08:59;6.83;;;3.33;;
31114;SDS011;17764;47.152;9.828;2023-02-15T09:11:29;6.17;;;3.50;;
31114;SDS011;17764;47.152;9.828;2023-02-15T09:16:25;6.10;;;4.03;;
31114;SDS011;17764;47.152;9.828;2023-02-15T09:18:51;7.77;;;4.50;;
31114;SDS011;17764;47.152;9.828;2023-02-15T09:21:18;13.17;;;6.43;;
31114;SDS011;17764;47.152;9.828;2023-02-15T09:23:49;9.63;;;5.63;;
31114;SDS011;17764;47.152;9.828;2023-02-15T09:26:16;12.70;;;6.37;;
31114;SDS011;17764;47.152;9.828;2023-02-15T09:28:44;9.67;;;5.40;;
31114;SDS011;17764;47.152;9.828;2023-02-15T09:31:12;7.23;;;4.57;;
31114;SDS011;17764;47.152;9.828;2023-02-15T09:33:42;5.33;;;2.80;;
31114;SDS011;17764;47.152;9.828;2023-02-15T09:36:19;3.97;;;2.80;;
31114;SDS011;17764;47.152;9.828;2023-02-15T09:38:46;6.97;;;3.00;;
31114;SDS011;17764;47.152;9.828;2023-02-15T09:48:41;7.37;;;2.83;;
31114;SDS011;17764;47.152;9.828;2023-02-15T09:53:59;4.13;;;2.73;;
31114;SDS011;17764;47.152;9.828;2023-02-15T09:56:48;4.57;;;2.40;;
31114;SDS011;17764;47.152;9.828;2023-02-15T09:59:34;4.30;;;2.47;;
31114;SDS011;17764;47.152;9.828;2023-02-15T10:02:15;7.97;;;2.70;;
31114;SDS011;17764;47.152;9.828;2023-02-15T10:04:58;7.53;;;3.13;;
31114;SDS011;17764;47.152;9.828;2023-02-15T10:09:58;8.53;;;2.80;;
31114;SDS011;17764;47.152;9.828;2023-02-15T10:13:15;9.57;;;3.00;;
31114;SDS011;17764;47.152;9.828;2023-02-15T10:28:06;9.43;;;2.23;;
31114;SDS011;17764;47.152;9.828;2023-02-15T10:31:20;9.80;;;3.00;;
31114;SDS011;17764;47.152;9.828;2023-02-15T10:33:25;6.33;;;3.20;;
31114;SDS011;17764;47.152;9.828;2023-02-15T10:43:43;4.37;;;2.77;;
31114;SDS011;17764;47.152;9.828;2023-02-15T10:54:36;9.90;;;3.43;;
31114;SDS011;17764;47.152;9.828;2023-02-15T11:02:32;7.17;;;3.73;;
31114;SDS011;17764;47.152;9.828;2023-02-15T11:05:16;7.23;;;3.13;;
31114;SDS011;17764;47.152;9.828;2023-02-15T11:07:45;5.30;;;2.57;;
31114;SDS011;17764;47.152;9.828;2023-02-15T11:10:34;8.43;;;3.00;;
31114;SDS011;17764;47.152;9.828;2023-02-15T11:13:08;5.57;;;3.60;;
31114;SDS011;17764;47.152;9.828;2023-02-15T11:15:36;7.37;;;2.97;;
31114;SDS011;17764;47.152;9.828;2023-02-15T11:18:09;4.43;;;2.50;;
31114;SDS011;17764;47.152;9.828;2023-02-15T11:20:38;4.33;;;2.80;;
31114;SDS011;17764;47.152;9.828;2023-02-15T11:23:14;6.40;;;2.40;;
31114;SDS011;17764;47.152;9.828;2023-02-15T11:25:41;5.07;;;2.50;;
31114;SDS011;17764;47.152;9.828;2023-02-15T11:28:17;6.87;;;2.33;;
31114;SDS011;17764;47.152;9.828;2023-02-15T11:30:46;6.50;;;2.70;;
31114;SDS011;17764;47.152;9.828;2023-02-15T11:33:38;5.67;;;2.00;;
31114;SDS011;17764;47.152;9.828;2023-02-15T11:36:10;5.97;;;1.80;;
31114;SDS011;17764;47.152;9.828;2023-02-15T11:38:37;5.27;;;2.20;;
31114;SDS011;17764;47.152;9.828;2023-02-15T11:41:12;6.20;;;1.90;;
31114;SDS011;17764;47.152;9.828;2023-02-15T11:43:50;2.70;;;1.43;;
31114;SDS011;17764;47.152;9.828;2023-02-15T11:46:19;2.23;;;1.50;;
31114;SDS011;17764;47.152;9.828;2023-02-15T11:48:46;2.63;;;1.50;;
31114;SDS011;17764;47.152;9.828;2023-02-15T11:51:14;4.80;;;1.50;;
31114;SDS011;17764;47.152;9.828;2023-02-15T11:53:44;7.10;;;1.57;;
31114;SDS011;17764;47.152;9.828;2023-02-15T11:56:18;2.30;;;1.43;;
31114;SDS011;17764;47.152;9.828;2023-02-15T11:58:45;4.77;;;1.67;;
31114;SDS011;17764;47.152;9.828;2023-02-15T12:01:24;2.13;;;1.40;;
31114;SDS011;17764;47.152;9.828;2023-02-15T12:04:01;4.77;;;2.00;;
31114;SDS011;17764;47.152;9.828;2023-02-15T12:06:34;6.40;;;2.00;;
31114;SDS011;17764;47.152;9.828;2023-02-15T12:09:05;4.50;;;2.10;;
31114;SDS011;17764;47.152;9.828;2023-02-15T12:11:34;4.70;;;2.40;;
31114;SDS011;17764;47.152;9.828;2023-02-15T12:14:02;5.23;;;2.40;;
31114;SDS011;17764;47.152;9.828;2023-02-15T12:16:32;4.63;;;2.20;;
31114;SDS011;17764;47.152;9.828;2023-02-15T12:19:32;5.63;;;2.60;;
31114;SDS011;17764;47.152;9.828;2023-02-15T12:21:59;4.40;;;2.30;;
31114;SDS011;17764;47.152;9.828;2023-02-15T12:24:29;6.63;;;2.60;;
31114;SDS011;17764;47.152;9.828;2023-02-15T12:26:57;6.07;;;2.43;;
31114;SDS011;17764;47.152;9.828;2023-02-15T12:29:26;5.07;;;2.70;;
31114;SDS011;17764;47.152;9.828;2023-02-15T12:31:54;8.53;;;3.07;;
31114;SDS011;17764;47.152;9.828;2023-02-15T12:34:27;5.50;;;3.17;;
31114;SDS011;17764;47.152;9.828;2023-02-15T12:36:55;5.80;;;3.57;;
31114;SDS011;17764;47.152;9.828;2023-02-15T12:39:25;5.87;;;3.50;;
31114;SDS011;17764;47.152;9.828;2023-02-15T12:44:24;5.77;;;3.10;;
31114;SDS011;17764;47.152;9.828;2023-02-15T12:46:58;6.63;;;3.33;;
31114;SDS011;17764;47.152;9.828;2023-02-15T12:49:28;11.67;;;4.37;;
31114;SDS011;17764;47.152;9.828;2023-02-15T12:51:58;8.47;;;4.13;;
31114;SDS011;17764;47.152;9.828;2023-02-15T12:54:46;6.17;;;3.50;;
31114;SDS011;17764;47.152;9.828;2023-02-15T12:59:47;3.97;;;2.80;;
31114;SDS011;17764;47.152;9.828;2023-02-15T13:02:19;4.00;;;2.70;;
31114;SDS011;17764;47.152;9.828;2023-02-15T13:04:50;5.13;;;2.80;;
31114;SDS011;17764;47.152;9.828;2023-02-15T13:07:16;4.83;;;2.67;;
31114;SDS011;17764;47.152;9.828;2023-02-15T13:09:42;6.93;;;2.77;;
31114;SDS011;17764;47.152;9.828;2023-02-15T13:14:46;8.57;;;2.73;;
31114;SDS011;17764;47.152;9.828;2023-02-15T13:17:16;3.37;;;2.60;;
31114;SDS011;17764;47.152;9.828;2023-02-15T13:19:47;6.83;;;3.17;;
31114;SDS011;17764;47.152;9.828;2023-02-15T13:22:18;3.77;;;2.50;;
31114;SDS011;17764;47.152;9.828;2023-02-15T13:27:14;6.50;;;4.20;;
31114;SDS011;17764;47.152;9.828;2023-02-15T13:29:42;7.80;;;4.60;;
31114;SDS011;17764;47.152;9.828;2023-02-15T13:32:28;7.00;;;4.90;;
31114;SDS011;17764;47.152;9.828;2023-02-15T13:34:56;5.87;;;3.90;;
31114;SDS011;17764;47.152;9.828;2023-02-15T13:42:40;7.43;;;3.37;;
31114;SDS011;17764;47.152;9.828;2023-02-15T13:48:22;7.70;;;2.67;;
31114;SDS011;17764;47.152;9.828;2023-02-15T13:50:56;4.97;;;2.83;;
31114;SDS011;17764;47.152;9.828;2023-02-15T14:06:48;4.57;;;2.50;;
31114;SDS011;17764;47.152;9.828;2023-02-15T14:15:08;4.10;;;2.40;;
31114;SDS011;17764;47.152;9.828;2023-02-15T14:25:42;5.07;;;3.60;;
31114;SDS011;17764;47.152;9.828;2023-02-15T14:28:17;6.67;;;4.43;;
31114;SDS011;17764;47.152;9.828;2023-02-15T14:30:47;5.60;;;3.40;;
31114;SDS011;17764;47.152;9.828;2023-02-15T14:35:40;3.83;;;3.03;;
31114;SDS011;17764;47.152;9.828;2023-02-15T14:41:09;5.93;;;3.73;;
31114;SDS011;17764;47.152;9.828;2023-02-15T14:46:27;5.07;;;3.47;;
31114;SDS011;17764;47.152;9.828;2023-02-15T14:48:57;7.00;;;3.60;;
31114;SDS011;17764;47.152;9.828;2023-02-15T14:54:08;5.07;;;3.80;;
31114;SDS011;17764;47.152;9.828;2023-02-15T14:56:34;4.53;;;3.57;;
31114;SDS011;17764;47.152;9.828;2023-02-15T14:59:21;6.17;;;3.40;;
31114;SDS011;17764;47.152;9.828;2023-02-15T15:01:51;6.37;;;4.03;;
31114;SDS011;17764;47.152;9.828;2023-02-15T15:04:29;7.13;;;3.83;;
31114;SDS011;17764;47.152;9.828;2023-02-15T15:09:40;4.30;;;3.00;;
31114;SDS011;17764;47.152;9.828;2023-02-15T15:14:40;5.33;;;3.60;;
31114;SDS011;17764;47.152;9.828;2023-02-15T15:17:06;3.93;;;3.03;;
31114;SDS011;17764;47.152;9.828;2023-02-15T15:22:20;7.50;;;3.30;;
31114;SDS011;17764;47.152;9.828;2023-02-15T15:24:48;3.97;;;2.83;;
31114;SDS011;17764;47.152;9.828;2023-02-15T15:49:15;4.60;;;3.37;;
31114;SDS011;17764;47.152;9.828;2023-02-15T15:51:42;7.00;;;3.63;;
31114;SDS011;17764;47.152;9.828;2023-02-15T15:54:17;5.80;;;3.27;;
31114;SDS011;17764;47.152;9.828;2023-02-15T15:56:47;7.23;;;4.13;;
31114;SDS011;17764;47.152;9.828;2023-02-15T15:59:16;5.77;;;3.80;;
31114;SDS011;17764;47.152;9.828;2023-02-15T16:01:44;8.17;;;4.33;;
31114;SDS011;17764;47.152;9.828;2023-02-15T16:04:11;8.63;;;4.90;;
31114;SDS011;17764;47.152;9.828;2023-02-15T16:06:38;9.93;;;5.03;;
31114;SDS011;17764;47.152;9.828;2023-02-15T16:09:12;10.17;;;5.63;;
31114;SDS011;17764;47.152;9.828;2023-02-15T16:11:39;9.37;;;5.57;;
31114;SDS011;17764;47.152;9.828;2023-02-15T16:14:11;8.80;;;5.50;;
31114;SDS011;17764;47.152;9.828;2023-02-15T16:16:38;7.97;;;5.83;;
31114;SDS011;17764;47.152;9.828;2023-02-15T16:19:04;8.27;;;5.97;;
31114;SDS011;17764;47.152;9.828;2023-02-15T16:21:32;10.17;;;6.50;;
31114;SDS011;17764;47.152;9.828;2023-02-15T16:24:02;7.30;;;5.87;;
31114;SDS011;17764;47.152;9.828;2023-02-15T16:29:16;12.23;;;6.83;;
31114;SDS011;17764;47.152;9.828;2023-02-15T16:31:42;14.03;;;8.20;;
31114;SDS011;17764;47.152;9.828;2023-02-15T16:34:17;13.70;;;8.20;;
31114;SDS011;17764;47.152;9.828;2023-02-15T16:36:43;13.77;;;8.73;;
31114;SDS011;17764;47.152;9.828;2023-02-15T16:39:12;15.07;;;9.53;;
31114;SDS011;17764;47.152;9.828;2023-02-15T16:41:42;18.97;;;9.60;;
31114;SDS011;17764;47.152;9.828;2023-02-15T16:44:18;22.00;;;10.60;;
31114;SDS011;17764;47.152;9.828;2023-02-15T16:46:50;17.17;;;12.37;;
31114;SDS011;17764;47.152;9.828;2023-02-15T16:49:19;20.80;;;13.97;;
31114;SDS011;17764;47.152;9.828;2023-02-15T16:51:53;23.63;;;16.73;;
31114;SDS011;17764;47.152;9.828;2023-02-15T16:54:21;19.57;;;15.30;;
31114;SDS011;17764;47.152;9.828;2023-02-15T16:56:48;21.53;;;14.07;;
31114;SDS011;17764;47.152;9.828;2023-02-15T17:01:58;16.67;;;10.17;;
31114;SDS011;17764;47.152;9.828;2023-02-15T17:06:57;19.40;;;9.07;;
31114;SDS011;17764;47.152;9.828;2023-02-15T17:09:24;18.10;;;8.47;;
31114;SDS011;17764;47.152;9.828;2023-02-15T17:11:50;15.90;;;8.60;;
31114;SDS011;17764;47.152;9.828;2023-02-15T17:14:20;16.80;;;8.93;;
31114;SDS011;17764;47.152;9.828;2023-02-15T17:16:58;18.20;;;8.80;;
31114;SDS011;17764;47.152;9.828;2023-02-15T17:19:27;17.27;;;8.53;;
31114;SDS011;17764;47.152;9.828;2023-02-15T17:21:58;19.13;;;9.73;;
31114;SDS011;17764;47.152;9.828;2023-02-15T17:24:31;19.73;;;11.23;;
31114;SDS011;17764;47.152;9.828;2023-02-15T17:27:00;18.33;;;11.47;;
31114;SDS011;17764;47.152;9.828;2023-02-15T17:29:41;21.73;;;12.60;;
31114;SDS011;17764;47.152;9.828;2023-02-15T17:32:14;21.63;;;11.30;;
31114;SDS011;17764;47.152;9.828;2023-02-15T17:39:51;14.50;;;9.93;;
31114;SDS011;17764;47.152;9.828;2023-02-15T17:42:18;15.07;;;9.40;;
31114;SDS011;17764;47.152;9.828;2023-02-15T17:44:44;16.07;;;9.00;;
31114;SDS011;17764;47.152;9.828;2023-02-15T17:47:14;13.80;;;7.43;;
31114;SDS011;17764;47.152;9.828;2023-02-15T17:49:41;11.90;;;6.83;;
31114;SDS011;17764;47.152;9.828;2023-02-15T17:52:11;12.90;;;7.07;;
31114;SDS011;17764;47.152;9.828;2023-02-15T17:54:39;15.10;;;7.10;;
31114;SDS011;17764;47.152;9.828;2023-02-15T17:57:26;11.07;;;6.57;;
31114;SDS011;17764;47.152;9.828;2023-02-15T17:59:53;10.87;;;6.27;;
31114;SDS011;17764;47.152;9.828;2023-02-15T18:02:38;12.67;;;6.33;;
31114;SDS011;17764;47.152;9.828;2023-02-15T18:05:23;10.13;;;5.57;;
31114;SDS011;17764;47.152;9.828;2023-02-15T18:08:10;8.20;;;5.33;;
31114;SDS011;17764;47.152;9.828;2023-02-15T18:10:55;10.87;;;5.40;;